sensor_id;sensor_type;location;lat;lon;timestamp;P1;durP1;ratioP1;P2;durP2;ratioP2
15869;SDS011;63464;51.344;-1.634;2022-09-21T11:32:19;8.08;;;7.67;;
15869;SDS011;63464;51.344;-1.634;2022-09-21T11:35:20;7.92;;;7.55;;
15869;SDS011;63464;51.344;-1.634;2022-09-21T11:38:08;7.33;;;7.03;;
15869;SDS011;63464;51.344;-1.634;2022-09-21T11:43:07;7.33;;;6.93;;
15869;SDS011;63464;51.344;-1.634;2022-09-21T11:49:14;7.50;;;7.20;;
15869;SDS011;63464;51.344;-1.634;2022-09-21T11:51:55;8.03;;;7.73;;
15869;SDS011;63464;51.344;-1.634;2022-09-21T11:55:06;8.33;;;7.83;;
15869;SDS011;63464;51.344;-1.634;2022-09-21T11:57:36;7.87;;;7.57;;
15869;SDS011;63464;51.344;-1.634;2022-09-21T12:00:10;8.73;;;8.23;;
15869;SDS011;63464;51.344;-1.634;2022-09-21T12:05:28;8.90;;;8.40;;
15869;SDS011;63464;51.344;-1.634;2022-09-21T12:08:03;8.87;;;8.47;;
15869;SDS011;63464;51.344;-1.634;2022-09-21T12:10:37;8.63;;;8.23;;
15869;SDS011;63464;51.344;-1.634;2022-09-21T12:13:07;9.60;;;9.00;;
15869;SDS011;63464;51.344;-1.634;2022-09-21T12:15:37;8.17;;;7.77;;
15869;SDS011;63464;51.344;-1.634;2022-09-21T12:18:07;9.28;;;8.73;;
15869;SDS011;63464;51.344;-1.634;2022-09-21T12:20:41;8.67;;;8.27;;
15869;SDS011;63464;51.344;-1.634;2022-09-21T12:23:10;9.13;;;8.63;;
15869;SDS011;63464;51.344;-1.634;2022-09-21T12:25:38;8.33;;;7.93;;
15869;SDS011;63464;51.344;-1.634;2022-09-21T12:28:10;9.10;;;8.70;;
15869;SDS011;63464;51.344;-1.634;2022-09-21T12:30:40;9.10;;;8.70;;
15869;SDS011;63464;51.344;-1.634;2022-09-21T12:33:11;8.80;;;8.30;;
15869;SDS011;63464;51.344;-1.634;2022-09-21T12:35:41;9.10;;;8.60;;
15869;SDS011;63464;51.344;-1.634;2022-09-21T12:38:11;9.07;;;8.67;;
15869;SDS011;63464;51.344;-1.634;2022-09-21T12:40:42;8.77;;;8.37;;
15869;SDS011;63464;51.344;-1.634;2022-09-21T12:43:25;8.80;;;8.37;;
15869;SDS011;63464;51.344;-1.634;2022-09-21T12:45:50;8.90;;;8.60;;
15869;SDS011;63464;51.344;-1.634;2022-09-21T12:48:19;9.07;;;8.73;;
15869;SDS011;63464;51.344;-1.634;2022-09-21T12:50:47;9.08;;;8.60;;
15869;SDS011;63464;51.344;-1.634;2022-09-21T12:53:17;9.98;;;9.40;;
15869;SDS011;63464;51.344;-1.634;2022-09-21T12:55:49;8.48;;;8.08;;
15869;SDS011;63464;51.344;-1.634;2022-09-21T12:58:38;8.28;;;7.87;;
15869;SDS011;63464;51.344;-1.634;2022-09-21T13:01:07;10.72;;;9.73;;
15869;SDS011;63464;51.344;-1.634;2022-09-21T13:03:35;9.40;;;8.80;;
15869;SDS011;63464;51.344;-1.634;2022-09-21T13:06:26;8.98;;;8.55;;
15869;SDS011;63464;51.344;-1.634;2022-09-21T13:08:52;9.23;;;8.83;;
15869;SDS011;63464;51.344;-1.634;2022-09-21T13:11:21;9.50;;;9.00;;
15869;SDS011;63464;51.344;-1.634;2022-09-21T13:13:50;8.93;;;8.33;;
15869;SDS011;63464;51.344;-1.634;2022-09-21T13:16:24;8.98;;;8.50;;
15869;SDS011;63464;51.344;-1.634;2022-09-21T13:18:54;9.18;;;8.68;;
15869;SDS011;63464;51.344;-1.634;2022-09-21T13:21:24;9.18;;;8.78;;
15869;SDS011;63464;51.344;-1.634;2022-09-21T13:23:54;9.40;;;8.90;;
15869;SDS011;63464;51.344;-1.634;2022-09-21T13:26:31;9.20;;;8.80;;
15869;SDS011;63464;51.344;-1.634;2022-09-21T13:31:57;8.65;;;8.25;;
15869;SDS011;63464;51.344;-1.634;2022-09-21T13:34:35;8.28;;;7.97;;
15869;SDS011;63464;51.344;-1.634;2022-09-21T13:43:21;9.00;;;8.60;;
15869;SDS011;63464;51.344;-1.634;2022-09-21T13:45:54;9.85;;;9.28;;
15869;SDS011;63464;51.344;-1.634;2022-09-21T13:48:24;9.15;;;8.70;;
15869;SDS011;63464;51.344;-1.634;2022-09-21T13:50:56;8.90;;;8.50;;
15869;SDS011;63464;51.344;-1.634;2022-09-21T13:53:27;8.90;;;8.50;;
15869;SDS011;63464;51.344;-1.634;2022-09-21T13:55:59;8.95;;;8.45;;
15869;SDS011;63464;51.344;-1.634;2022-09-21T13:58:25;9.10;;;8.60;;
15869;SDS011;63464;51.344;-1.634;2022-09-21T14:00:55;8.93;;;8.53;;
15869;SDS011;63464;51.344;-1.634;2022-09-21T14:03:25;9.75;;;9.20;;
15869;SDS011;63464;51.344;-1.634;2022-09-21T14:05:58;9.38;;;8.98;;
15869;SDS011;63464;51.344;-1.634;2022-09-21T14:08:25;8.63;;;8.15;;
15869;SDS011;63464;51.344;-1.634;2022-09-21T14:10:55;8.78;;;8.35;;
15869;SDS011;63464;51.344;-1.634;2022-09-21T14:13:27;8.75;;;8.35;;
15869;SDS011;63464;51.344;-1.634;2022-09-21T14:16:09;8.63;;;8.23;;
15869;SDS011;63464;51.344;-1.634;2022-09-21T14:18:38;9.03;;;8.63;;
15869;SDS011;63464;51.344;-1.634;2022-09-21T14:21:08;9.30;;;8.80;;
15869;SDS011;63464;51.344;-1.634;2022-09-21T14:23:37;9.23;;;8.73;;
15869;SDS011;63464;51.344;-1.634;2022-09-21T14:26:19;8.70;;;8.20;;
15869;SDS011;63464;51.344;-1.634;2022-09-21T14:28:48;8.63;;;8.15;;
15869;SDS011;63464;51.344;-1.634;2022-09-21T14:31:19;8.58;;;8.18;;
15869;SDS011;63464;51.344;-1.634;2022-09-21T14:33:52;8.28;;;7.87;;
15869;SDS011;63464;51.344;-1.634;2022-09-21T14:36:21;8.55;;;8.13;;
15869;SDS011;63464;51.344;-1.634;2022-09-21T14:38:51;8.95;;;8.45;;
15869;SDS011;63464;51.344;-1.634;2022-09-21T14:41:22;8.70;;;8.20;;
15869;SDS011;63464;51.344;-1.634;2022-09-21T14:43:51;8.40;;;8.00;;
15869;SDS011;63464;51.344;-1.634;2022-09-21T14:46:41;8.63;;;8.25;;
15869;SDS011;63464;51.344;-1.634;2022-09-21T14:49:18;8.73;;;8.33;;
15869;SDS011;63464;51.344;-1.634;2022-09-21T14:51:48;8.00;;;7.70;;
15869;SDS011;63464;51.344;-1.634;2022-09-21T14:54:25;8.63;;;8.23;;
15869;SDS011;63464;51.344;-1.634;2022-09-21T14:57:02;8.90;;;8.50;;
15869;SDS011;63464;51.344;-1.634;2022-09-21T14:59:37;9.55;;;8.98;;
15869;SDS011;63464;51.344;-1.634;2022-09-21T15:02:11;8.15;;;7.72;;
15869;SDS011;63464;51.344;-1.634;2022-09-21T15:04:43;8.65;;;8.10;;
15869;SDS011;63464;51.344;-1.634;2022-09-21T15:07:18;8.23;;;7.80;;
15869;SDS011;63464;51.344;-1.634;2022-09-21T15:10:09;8.43;;;8.03;;
15869;SDS011;63464;51.344;-1.634;2022-09-21T15:12:57;8.05;;;7.65;;
15869;SDS011;63464;51.344;-1.634;2022-09-21T15:15:33;8.43;;;8.03;;
15869;SDS011;63464;51.344;-1.634;2022-09-21T15:18:12;8.43;;;8.10;;
15869;SDS011;63464;51.344;-1.634;2022-09-21T15:20:38;8.43;;;8.03;;
15869;SDS011;63464;51.344;-1.634;2022-09-21T15:23:10;8.80;;;8.40;;
15869;SDS011;63464;51.344;-1.634;2022-09-21T15:25:39;9.18;;;8.70;;
15869;SDS011;63464;51.344;-1.634;2022-09-21T15:28:08;8.60;;;8.20;;
15869;SDS011;63464;51.344;-1.634;2022-09-21T15:30:40;9.73;;;9.03;;
15869;SDS011;63464;51.344;-1.634;2022-09-21T15:33:10;12.53;;;11.73;;
15869;SDS011;63464;51.344;-1.634;2022-09-21T15:35:42;11.25;;;10.58;;
15869;SDS011;63464;51.344;-1.634;2022-09-21T15:38:24;9.90;;;9.33;;
15869;SDS011;63464;51.344;-1.634;2022-09-21T15:40:53;8.70;;;8.30;;
15869;SDS011;63464;51.344;-1.634;2022-09-21T15:43:21;9.03;;;8.45;;
15869;SDS011;63464;51.344;-1.634;2022-09-21T15:45:51;9.23;;;8.73;;
15869;SDS011;63464;51.344;-1.634;2022-09-21T15:48:21;8.68;;;8.28;;
15869;SDS011;63464;51.344;-1.634;2022-09-21T15:50:52;8.68;;;8.28;;
15869;SDS011;63464;51.344;-1.634;2022-09-21T15:53:24;9.55;;;8.95;;
15869;SDS011;63464;51.344;-1.634;2022-09-21T15:55:53;8.95;;;8.43;;
15869;SDS011;63464;51.344;-1.634;2022-09-21T15:58:25;8.73;;;8.33;;
15869;SDS011;63464;51.344;-1.634;2022-09-21T16:00:54;8.98;;;8.50;;
15869;SDS011;63464;51.344;-1.634;2022-09-21T16:03:23;9.00;;;8.55;;
15869;SDS011;63464;51.344;-1.634;2022-09-21T16:05:53;8.98;;;8.38;;
15869;SDS011;63464;51.344;-1.634;2022-09-21T16:08:29;8.95;;;8.45;;
15869;SDS011;63464;51.344;-1.634;2022-09-21T16:11:18;8.78;;;8.28;;
15869;SDS011;63464;51.344;-1.634;2022-09-21T16:13:57;8.73;;;8.03;;
15869;SDS011;63464;51.344;-1.634;2022-09-21T16:17:04;9.30;;;8.60;;
15869;SDS011;63464;51.344;-1.634;2022-09-21T16:19:38;8.58;;;8.18;;
15869;SDS011;63464;51.344;-1.634;2022-09-21T16:22:10;8.43;;;8.03;;
15869;SDS011;63464;51.344;-1.634;2022-09-21T16:24:43;8.85;;;8.25;;
15869;SDS011;63464;51.344;-1.634;2022-09-21T16:27:15;8.40;;;7.90;;
15869;SDS011;63464;51.344;-1.634;2022-09-21T16:29:45;8.53;;;8.03;;
15869;SDS011;63464;51.344;-1.634;2022-09-21T16:32:27;8.77;;;8.23;;
15869;SDS011;63464;51.344;-1.634;2022-09-21T16:35:08;8.20;;;7.43;;
15869;SDS011;63464;51.344;-1.634;2022-09-21T16:37:25;8.63;;;8.00;;
15869;SDS011;63464;51.344;-1.634;2022-09-21T16:39:55;8.53;;;7.83;;
15869;SDS011;63464;51.344;-1.634;2022-09-21T16:42:24;8.20;;;7.70;;
15869;SDS011;63464;51.344;-1.634;2022-09-21T16:44:55;8.35;;;7.85;;
15869;SDS011;63464;51.344;-1.634;2022-09-21T16:47:24;8.77;;;8.37;;
15869;SDS011;63464;51.344;-1.634;2022-09-21T16:49:53;8.60;;;8.10;;
15869;SDS011;63464;51.344;-1.634;2022-09-21T16:52:22;8.50;;;8.10;;
15869;SDS011;63464;51.344;-1.634;2022-09-21T16:54:51;9.03;;;8.60;;
15869;SDS011;63464;51.344;-1.634;2022-09-21T16:57:20;8.57;;;8.03;;
15869;SDS011;63464;51.344;-1.634;2022-09-21T16:59:49;9.53;;;8.93;;
15869;SDS011;63464;51.344;-1.634;2022-09-21T17:02:17;8.63;;;8.03;;
15869;SDS011;63464;51.344;-1.634;2022-09-21T17:04:45;9.73;;;9.03;;
15869;SDS011;63464;51.344;-1.634;2022-09-21T17:07:14;9.57;;;8.13;;
15869;SDS011;63464;51.344;-1.634;2022-09-21T17:09:45;8.47;;;7.77;;
15869;SDS011;63464;51.344;-1.634;2022-09-21T17:12:15;9.30;;;8.63;;
15869;SDS011;63464;51.344;-1.634;2022-09-21T17:14:43;9.03;;;8.40;;
15869;SDS011;63464;51.344;-1.634;2022-09-21T17:17:12;8.63;;;7.93;;
15869;SDS011;63464;51.344;-1.634;2022-09-21T17:19:42;7.40;;;7.03;;
15869;SDS011;63464;51.344;-1.634;2022-09-21T17:22:12;8.00;;;7.63;;
15869;SDS011;63464;51.344;-1.634;2022-09-21T17:24:42;8.60;;;8.20;;
15869;SDS011;63464;51.344;-1.634;2022-09-21T17:27:11;8.40;;;7.90;;
15869;SDS011;63464;51.344;-1.634;2022-09-21T17:29:40;8.83;;;8.23;;
15869;SDS011;63464;51.344;-1.634;2022-09-21T17:32:10;8.90;;;8.40;;
15869;SDS011;63464;51.344;-1.634;2022-09-21T17:34:40;8.77;;;8.10;;
15869;SDS011;63464;51.344;-1.634;2022-09-21T17:37:08;8.33;;;7.77;;
15869;SDS011;63464;51.344;-1.634;2022-09-21T17:39:37;9.57;;;8.83;;
15869;SDS011;63464;51.344;-1.634;2022-09-21T17:42:11;8.70;;;8.20;;
15869;SDS011;63464;51.344;-1.634;2022-09-21T17:44:43;8.70;;;8.20;;
15869;SDS011;63464;51.344;-1.634;2022-09-21T17:47:14;8.23;;;7.83;;
15869;SDS011;63464;51.344;-1.634;2022-09-21T17:49:43;8.90;;;8.33;;
15869;SDS011;63464;51.344;-1.634;2022-09-21T17:52:13;8.63;;;8.13;;
15869;SDS011;63464;51.344;-1.634;2022-09-21T17:55:02;8.87;;;8.17;;
15869;SDS011;63464;51.344;-1.634;2022-09-21T17:57:37;9.23;;;8.73;;
15869;SDS011;63464;51.344;-1.634;2022-09-21T18:00:10;8.83;;;8.33;;
15869;SDS011;63464;51.344;-1.634;2022-09-21T18:02:39;8.43;;;7.90;;
15869;SDS011;63464;51.344;-1.634;2022-09-21T18:05:13;8.40;;;8.00;;
15869;SDS011;63464;51.344;-1.634;2022-09-21T18:07:40;8.50;;;8.00;;
15869;SDS011;63464;51.344;-1.634;2022-09-21T18:10:11;9.43;;;8.73;;
15869;SDS011;63464;51.344;-1.634;2022-09-21T18:12:59;8.70;;;8.30;;
15869;SDS011;63464;51.344;-1.634;2022-09-21T18:15:29;8.10;;;7.70;;
15869;SDS011;63464;51.344;-1.634;2022-09-21T18:18:01;8.47;;;8.07;;
15869;SDS011;63464;51.344;-1.634;2022-09-21T18:20:35;8.90;;;8.40;;
15869;SDS011;63464;51.344;-1.634;2022-09-21T18:23:12;8.80;;;8.30;;
15869;SDS011;63464;51.344;-1.634;2022-09-21T18:25:36;8.90;;;8.40;;
15869;SDS011;63464;51.344;-1.634;2022-09-21T18:28:09;8.50;;;8.10;;
15869;SDS011;63464;51.344;-1.634;2022-09-21T18:30:39;8.47;;;8.00;;
15869;SDS011;63464;51.344;-1.634;2022-09-21T18:33:10;8.60;;;8.10;;
15869;SDS011;63464;51.344;-1.634;2022-09-21T18:35:59;8.93;;;8.33;;
15869;SDS011;63464;51.344;-1.634;2022-09-21T18:38:30;9.40;;;8.80;;
15869;SDS011;63464;51.344;-1.634;2022-09-21T18:41:06;9.20;;;8.50;;
15869;SDS011;63464;51.344;-1.634;2022-09-21T18:43:40;9.10;;;8.60;;
15869;SDS011;63464;51.344;-1.634;2022-09-21T18:46:10;9.90;;;9.30;;
15869;SDS011;63464;51.344;-1.634;2022-09-21T18:48:41;10.30;;;9.70;;
15869;SDS011;63464;51.344;-1.634;2022-09-21T18:51:13;9.40;;;8.80;;
15869;SDS011;63464;51.344;-1.634;2022-09-21T18:53:42;10.23;;;9.63;;
15869;SDS011;63464;51.344;-1.634;2022-09-21T18:56:12;9.70;;;9.03;;
15869;SDS011;63464;51.344;-1.634;2022-09-21T18:58:41;9.07;;;8.57;;
15869;SDS011;63464;51.344;-1.634;2022-09-21T19:01:09;9.43;;;8.83;;
15869;SDS011;63464;51.344;-1.634;2022-09-21T19:03:39;9.60;;;8.90;;
15869;SDS011;63464;51.344;-1.634;2022-09-21T19:06:17;9.73;;;9.13;;
15869;SDS011;63464;51.344;-1.634;2022-09-21T19:08:47;10.07;;;9.47;;
15869;SDS011;63464;51.344;-1.634;2022-09-21T19:11:17;11.00;;;10.10;;
15869;SDS011;63464;51.344;-1.634;2022-09-21T19:13:46;10.00;;;9.37;;
15869;SDS011;63464;51.344;-1.634;2022-09-21T19:16:18;10.20;;;9.57;;
15869;SDS011;63464;51.344;-1.634;2022-09-21T19:18:50;10.17;;;9.47;;
15869;SDS011;63464;51.344;-1.634;2022-09-21T19:21:21;9.90;;;9.30;;
15869;SDS011;63464;51.344;-1.634;2022-09-21T19:23:54;10.70;;;10.03;;
15869;SDS011;63464;51.344;-1.634;2022-09-21T19:26:23;9.93;;;9.30;;
15869;SDS011;63464;51.344;-1.634;2022-09-21T19:28:57;9.87;;;9.37;;
15869;SDS011;63464;51.344;-1.634;2022-09-21T19:31:26;10.47;;;9.87;;
15869;SDS011;63464;51.344;-1.634;2022-09-21T19:33:55;11.53;;;10.73;;
15869;SDS011;63464;51.344;-1.634;2022-09-21T19:36:24;11.57;;;10.80;;
15869;SDS011;63464;51.344;-1.634;2022-09-21T19:38:53;11.67;;;10.97;;
15869;SDS011;63464;51.344;-1.634;2022-09-21T19:41:29;11.90;;;11.20;;
15869;SDS011;63464;51.344;-1.634;2022-09-21T19:43:58;12.53;;;11.73;;
15869;SDS011;63464;51.344;-1.634;2022-09-21T19:46:29;11.57;;;10.87;;
15869;SDS011;63464;51.344;-1.634;2022-09-21T19:49:01;11.27;;;10.47;;
15869;SDS011;63464;51.344;-1.634;2022-09-21T19:51:34;11.30;;;10.50;;
15869;SDS011;63464;51.344;-1.634;2022-09-21T19:54:00;12.13;;;11.30;;
15869;SDS011;63464;51.344;-1.634;2022-09-21T19:56:49;13.50;;;12.70;;
15869;SDS011;63464;51.344;-1.634;2022-09-21T19:59:35;12.63;;;11.90;;
15869;SDS011;63464;51.344;-1.634;2022-09-21T20:02:11;13.00;;;12.00;;
15869;SDS011;63464;51.344;-1.634;2022-09-21T20:04:41;12.23;;;11.43;;
15869;SDS011;63464;51.344;-1.634;2022-09-21T20:07:14;12.77;;;11.97;;
15869;SDS011;63464;51.344;-1.634;2022-09-21T20:09:45;12.83;;;11.90;;
15869;SDS011;63464;51.344;-1.634;2022-09-21T20:12:15;12.67;;;11.87;;
15869;SDS011;63464;51.344;-1.634;2022-09-21T20:14:45;12.03;;;11.23;;
15869;SDS011;63464;51.344;-1.634;2022-09-21T20:17:16;12.70;;;11.70;;
15869;SDS011;63464;51.344;-1.634;2022-09-21T20:19:48;11.37;;;10.60;;
15869;SDS011;63464;51.344;-1.634;2022-09-21T20:22:17;11.57;;;10.97;;
15869;SDS011;63464;51.344;-1.634;2022-09-21T20:24:49;13.23;;;12.23;;
15869;SDS011;63464;51.344;-1.634;2022-09-21T20:27:21;12.87;;;11.87;;
15869;SDS011;63464;51.344;-1.634;2022-09-21T20:29:50;18.17;;;16.77;;
15869;SDS011;63464;51.344;-1.634;2022-09-21T20:32:20;14.90;;;13.77;;
15869;SDS011;63464;51.344;-1.634;2022-09-21T20:34:49;14.47;;;13.57;;
15869;SDS011;63464;51.344;-1.634;2022-09-21T20:37:17;13.77;;;12.97;;
15869;SDS011;63464;51.344;-1.634;2022-09-21T20:39:47;13.87;;;12.97;;
15869;SDS011;63464;51.344;-1.634;2022-09-21T20:42:18;13.93;;;13.00;;
15869;SDS011;63464;51.344;-1.634;2022-09-21T20:44:48;12.93;;;12.23;;
15869;SDS011;63464;51.344;-1.634;2022-09-21T20:47:16;13.40;;;12.50;;
15869;SDS011;63464;51.344;-1.634;2022-09-21T20:49:46;13.70;;;12.80;;
15869;SDS011;63464;51.344;-1.634;2022-09-21T20:52:14;13.40;;;12.70;;
15869;SDS011;63464;51.344;-1.634;2022-09-21T20:54:43;13.60;;;12.70;;
15869;SDS011;63464;51.344;-1.634;2022-09-21T20:57:12;13.90;;;13.00;;
15869;SDS011;63464;51.344;-1.634;2022-09-21T20:59:40;13.27;;;12.37;;
15869;SDS011;63464;51.344;-1.634;2022-09-21T21:02:08;12.80;;;12.00;;
15869;SDS011;63464;51.344;-1.634;2022-09-21T21:04:37;13.23;;;12.33;;
15869;SDS011;63464;51.344;-1.634;2022-09-21T21:07:05;12.50;;;11.70;;
15869;SDS011;63464;51.344;-1.634;2022-09-21T21:09:33;15.73;;;12.80;;
15869;SDS011;63464;51.344;-1.634;2022-09-21T21:12:02;21.13;;;12.87;;
15869;SDS011;63464;51.344;-1.634;2022-09-21T21:14:30;13.17;;;11.90;;
15869;SDS011;63464;51.344;-1.634;2022-09-21T21:16:59;13.83;;;12.43;;
15869;SDS011;63464;51.344;-1.634;2022-09-21T21:19:28;12.90;;;11.90;;
15869;SDS011;63464;51.344;-1.634;2022-09-21T21:21:57;13.13;;;12.03;;
15869;SDS011;63464;51.344;-1.634;2022-09-21T21:24:28;13.57;;;12.67;;
15869;SDS011;63464;51.344;-1.634;2022-09-21T21:27:10;13.73;;;12.50;;
15869;SDS011;63464;51.344;-1.634;2022-09-21T21:29:40;12.50;;;11.70;;
15869;SDS011;63464;51.344;-1.634;2022-09-21T21:32:09;12.83;;;12.03;;
15869;SDS011;63464;51.344;-1.634;2022-09-21T21:34:37;12.03;;;11.27;;
15869;SDS011;63464;51.344;-1.634;2022-09-21T21:37:06;12.67;;;11.87;;
15869;SDS011;63464;51.344;-1.634;2022-09-21T21:39:37;11.60;;;10.83;;
15869;SDS011;63464;51.344;-1.634;2022-09-21T21:42:05;12.40;;;11.60;;
15869;SDS011;63464;51.344;-1.634;2022-09-21T21:44:34;12.43;;;11.57;;
15869;SDS011;63464;51.344;-1.634;2022-09-21T21:47:02;12.73;;;11.93;;
15869;SDS011;63464;51.344;-1.634;2022-09-21T21:49:30;13.70;;;12.80;;
15869;SDS011;63464;51.344;-1.634;2022-09-21T21:52:03;13.50;;;12.60;;
15869;SDS011;63464;51.344;-1.634;2022-09-21T21:54:32;13.60;;;12.80;;
15869;SDS011;63464;51.344;-1.634;2022-09-21T21:57:00;13.53;;;12.63;;
15869;SDS011;63464;51.344;-1.634;2022-09-21T21:59:29;14.87;;;13.80;;
15869;SDS011;63464;51.344;-1.634;2022-09-21T22:01:57;14.40;;;13.40;;
15869;SDS011;63464;51.344;-1.634;2022-09-21T22:04:25;14.43;;;13.43;;
15869;SDS011;63464;51.344;-1.634;2022-09-21T22:06:54;14.13;;;13.03;;
15869;SDS011;63464;51.344;-1.634;2022-09-21T22:09:22;14.53;;;13.53;;
15869;SDS011;63464;51.344;-1.634;2022-09-21T22:11:50;14.83;;;13.80;;
15869;SDS011;63464;51.344;-1.634;2022-09-21T22:14:18;15.37;;;14.17;;
15869;SDS011;63464;51.344;-1.634;2022-09-21T22:16:48;14.47;;;13.57;;
15869;SDS011;63464;51.344;-1.634;2022-09-21T22:19:17;14.53;;;13.60;;
15869;SDS011;63464;51.344;-1.634;2022-09-21T22:21:45;14.60;;;13.70;;
15869;SDS011;63464;51.344;-1.634;2022-09-21T22:24:13;14.23;;;13.33;;
15869;SDS011;63464;51.344;-1.634;2022-09-21T22:26:42;14.20;;;13.20;;
15869;SDS011;63464;51.344;-1.634;2022-09-21T22:29:12;14.60;;;13.60;;
15869;SDS011;63464;51.344;-1.634;2022-09-21T22:31:41;13.90;;;13.00;;
15869;SDS011;63464;51.344;-1.634;2022-09-21T22:34:10;15.37;;;14.27;;
15869;SDS011;63464;51.344;-1.634;2022-09-21T22:36:39;14.63;;;13.57;;
15869;SDS011;63464;51.344;-1.634;2022-09-21T22:39:09;15.20;;;14.10;;
15869;SDS011;63464;51.344;-1.634;2022-09-21T22:41:38;14.70;;;13.70;;
15869;SDS011;63464;51.344;-1.634;2022-09-21T22:44:07;15.47;;;14.27;;
15869;SDS011;63464;51.344;-1.634;2022-09-21T22:46:36;16.17;;;14.87;;
15869;SDS011;63464;51.344;-1.634;2022-09-21T22:49:05;15.53;;;14.33;;
15869;SDS011;63464;51.344;-1.634;2022-09-21T22:51:33;15.20;;;14.10;;
15869;SDS011;63464;51.344;-1.634;2022-09-21T22:54:03;15.67;;;14.50;;
15869;SDS011;63464;51.344;-1.634;2022-09-21T22:56:31;16.07;;;14.93;;
15869;SDS011;63464;51.344;-1.634;2022-09-21T22:59:00;16.60;;;15.40;;
15869;SDS011;63464;51.344;-1.634;2022-09-21T23:01:29;15.40;;;14.30;;
15869;SDS011;63464;51.344;-1.634;2022-09-21T23:03:59;16.80;;;15.60;;
15869;SDS011;63464;51.344;-1.634;2022-09-21T23:06:29;17.17;;;15.87;;
15869;SDS011;63464;51.344;-1.634;2022-09-21T23:08:58;18.67;;;17.17;;
15869;SDS011;63464;51.344;-1.634;2022-09-21T23:11:29;17.93;;;16.47;;
15869;SDS011;63464;51.344;-1.634;2022-09-21T23:13:59;17.60;;;16.30;;
15869;SDS011;63464;51.344;-1.634;2022-09-21T23:16:28;16.80;;;15.47;;
15869;SDS011;63464;51.344;-1.634;2022-09-21T23:18:56;16.47;;;15.07;;
15869;SDS011;63464;51.344;-1.634;2022-09-21T23:21:26;16.13;;;14.87;;
15869;SDS011;63464;51.344;-1.634;2022-09-21T23:23:55;15.33;;;14.27;;
15869;SDS011;63464;51.344;-1.634;2022-09-21T23:26:25;16.47;;;15.07;;
15869;SDS011;63464;51.344;-1.634;2022-09-21T23:28:54;17.40;;;16.20;;
15869;SDS011;63464;51.344;-1.634;2022-09-21T23:31:23;19.87;;;18.07;;
15869;SDS011;63464;51.344;-1.634;2022-09-21T23:33:54;19.07;;;17.43;;
15869;SDS011;63464;51.344;-1.634;2022-09-21T23:36:24;19.00;;;17.60;;
15869;SDS011;63464;51.344;-1.634;2022-09-21T23:38:52;19.37;;;17.87;;
15869;SDS011;63464;51.344;-1.634;2022-09-21T23:41:21;18.70;;;17.20;;
15869;SDS011;63464;51.344;-1.634;2022-09-21T23:43:50;18.13;;;16.80;;
15869;SDS011;63464;51.344;-1.634;2022-09-21T23:46:19;18.07;;;16.67;;
15869;SDS011;63464;51.344;-1.634;2022-09-21T23:48:48;17.77;;;16.37;;
15869;SDS011;63464;51.344;-1.634;2022-09-21T23:51:16;17.63;;;16.17;;
15869;SDS011;63464;51.344;-1.634;2022-09-21T23:53:45;16.50;;;15.20;;
15869;SDS011;63464;51.344;-1.634;2022-09-21T23:56:14;17.53;;;15.97;;
15869;SDS011;63464;51.344;-1.634;2022-09-21T23:58:43;15.87;;;14.77;;
